Irving Johnson — WDB3153 — position and weather

sailwx.info

Track history (hours):
 
Tides and Currents Weather Stations Pressure Air Temp Water Temp Dewpoint Dewpoint Depression Visibility Wind Speed Wind Dir Waves Ship Positions

Irving Johnson (United States)

Ship's website: http://www.lamitopsail.org/

Owner: Los Angeles Maritime Institute, San Pedro, CA. More information available from US FCC via Universal Licensing System and Coast Guard Vessel Documentation Center.

Last reported at 2019-Feb-20 22:24 UTC. Time now 2019-Feb-21 15:49 UTC.
Position N 33°44' W 118°17'.

; draft 3 m.

Type: Sailing vessel. MMSI: 369725000.

Date/timePositionNaut miles runAvg speedWind from/ knotsBaromVisibWave heightAir tempDewpointWater temp
2019-Feb-20 22:24N 33°44' W 118°17'0 0.0
2019-Feb-20 21:57N 33°44' W 118°17'0 0.6
2019-Feb-20 21:30N 33°44' W 118°17'2 4.3
2019-Feb-20 21:00N 33°43' W 118°14'1 2.5
2019-Feb-20 20:29N 33°44' W 118°13'0 0.4
2019-Feb-20 19:58N 33°43' W 118°13'1 2.1
2019-Feb-20 19:30N 33°43' W 118°14'1 1.1
2019-Feb-20 19:00N 33°43' W 118°15'1 2.5
2019-Feb-20 18:28N 33°43' W 118°16'1 0.1
2019-Feb-19 22:09N 33°44' W 118°17'0 0.5
2019-Feb-19 21:47N 33°44' W 118°17'1 4.9
2019-Feb-19 21:29N 33°43' W 118°16'2 2.7
2019-Feb-19 20:55N 33°44' W 118°17'1 3.2
2019-Feb-19 20:30N 33°45' W 118°16'0 0.7
2019-Feb-19 20:00N 33°45' W 118°16'1 2.5
2019-Feb-19 19:28N 33°44' W 118°16'1 1.5
2019-Feb-19 19:00N 33°43' W 118°16'0 0.7
2019-Feb-19 18:27N 33°43' W 118°16'1 1.7
2019-Feb-19 17:58N 33°44' W 118°16'1 1.8
2019-Feb-19 17:27N 33°44' W 118°17'  
2019-Feb-17 00:45N 33°44' W 118°17'0 0.0
2019-Feb-17 00:25N 33°44' W 118°17'2 2.3
2019-Feb-16 23:35N 33°43' W 118°15'0 5.7
2019-Feb-16 23:30N 33°43' W 118°15'3 5.2
2019-Feb-16 22:55N 33°40' W 118°16'2 4.6
2019-Feb-16 22:30N 33°41' W 118°15'2 3.5
2019-Feb-16 21:57N 33°43' W 118°16'1 0.7
2019-Feb-16 20:56N 33°44' W 118°16'1 0.5
2019-Feb-16 19:39N 33°44' W 118°17'0 0.0
2019-Feb-16 03:12N 33°44' W 118°17'0 0.0
2019-Feb-16 02:15N 33°44' W 118°17'0 0.0
2019-Feb-16 01:48N 33°44' W 118°17'0 0.0
2019-Feb-15 22:59N 33°44' W 118°17'0 0.0
2019-Feb-15 22:01N 33°44' W 118°17'0 0.0
2019-Feb-15 21:29N 33°44' W 118°17'0 0.0
2019-Feb-15 20:46N 33°44' W 118°17'0 0.0
2019-Feb-15 20:27N 33°44' W 118°17'0 0.9
2019-Feb-15 20:00N 33°44' W 118°17'2 4.6
2019-Feb-15 19:29N 33°42' W 118°15'0 0.8
2019-Feb-15 18:59N 33°42' W 118°14'2 3.9
2019-Feb-15 18:30N 33°43' W 118°16'1 0.1
2019-Feb-15 03:28N 33°44' W 118°17'0 0.0
2019-Feb-15 02:57N 33°44' W 118°17'0 0.0
2019-Feb-15 02:29N 33°44' W 118°17'2 3.8
2019-Feb-15 01:59N 33°43' W 118°16'2 4.9
2019-Feb-15 01:30N 33°45' W 118°16'0 0.6
2019-Feb-15 01:00N 33°45' W 118°16'  
Track history (hours):
 
Tides and Currents Weather Stations Pressure Air Temp Water Temp Dewpoint Dewpoint Depression Visibility Wind Speed Wind Dir Waves Ship Positions

Irving Johnson (United States)

Ship's website: http://www.lamitopsail.org/

Owner: Los Angeles Maritime Institute, San Pedro, CA. More information available from US FCC via Universal Licensing System and Coast Guard Vessel Documentation Center.

Last reported at 2019-Feb-20 22:24 UTC. Time now 2019-Feb-21 15:49 UTC.
Position N 33°44' W 118°17'.

; draft 3 m.

Type: Sailing vessel. MMSI: 369725000.

Date/timePositionNaut miles runAvg speedWind from/ knotsBaromVisibWave heightAir tempDewpointWater temp
2019-Feb-20 22:24N 33°44' W 118°17'0 0.0
2019-Feb-20 21:57N 33°44' W 118°17'0 0.6
2019-Feb-20 21:30N 33°44' W 118°17'2 4.3
2019-Feb-20 21:00N 33°43' W 118°14'1 2.5
2019-Feb-20 20:29N 33°44' W 118°13'0 0.4
2019-Feb-20 19:58N 33°43' W 118°13'1 2.1
2019-Feb-20 19:30N 33°43' W 118°14'1 1.1
2019-Feb-20 19:00N 33°43' W 118°15'1 2.5
2019-Feb-20 18:28N 33°43' W 118°16'1 0.1
2019-Feb-19 22:09N 33°44' W 118°17'0 0.5
2019-Feb-19 21:47N 33°44' W 118°17'1 4.9
2019-Feb-19 21:29N 33°43' W 118°16'2 2.7
2019-Feb-19 20:55N 33°44' W 118°17'1 3.2
2019-Feb-19 20:30N 33°45' W 118°16'0 0.7
2019-Feb-19 20:00N 33°45' W 118°16'1 2.5
2019-Feb-19 19:28N 33°44' W 118°16'1 1.5
2019-Feb-19 19:00N 33°43' W 118°16'0 0.7
2019-Feb-19 18:27N 33°43' W 118°16'1 1.7
2019-Feb-19 17:58N 33°44' W 118°16'1 1.8
2019-Feb-19 17:27N 33°44' W 118°17'  
2019-Feb-17 00:45N 33°44' W 118°17'0 0.0
2019-Feb-17 00:25N 33°44' W 118°17'2 2.3
2019-Feb-16 23:35N 33°43' W 118°15'0 5.7
2019-Feb-16 23:30N 33°43' W 118°15'3 5.2
2019-Feb-16 22:55N 33°40' W 118°16'2 4.6
2019-Feb-16 22:30N 33°41' W 118°15'2 3.5
2019-Feb-16 21:57N 33°43' W 118°16'1 0.7
2019-Feb-16 20:56N 33°44' W 118°16'1 0.5
2019-Feb-16 19:39N 33°44' W 118°17'0 0.0
2019-Feb-16 03:12N 33°44' W 118°17'0 0.0
2019-Feb-16 02:15N 33°44' W 118°17'0 0.0
2019-Feb-16 01:48N 33°44' W 118°17'0 0.0
2019-Feb-15 22:59N 33°44' W 118°17'0 0.0
2019-Feb-15 22:01N 33°44' W 118°17'0 0.0
2019-Feb-15 21:29N 33°44' W 118°17'0 0.0
2019-Feb-15 20:46N 33°44' W 118°17'0 0.0
2019-Feb-15 20:27N 33°44' W 118°17'0 0.9
2019-Feb-15 20:00N 33°44' W 118°17'2 4.6
2019-Feb-15 19:29N 33°42' W 118°15'0 0.8
2019-Feb-15 18:59N 33°42' W 118°14'2 3.9
2019-Feb-15 18:30N 33°43' W 118°16'1 0.1
2019-Feb-15 03:28N 33°44' W 118°17'0 0.0
2019-Feb-15 02:57N 33°44' W 118°17'0 0.0
2019-Feb-15 02:29N 33°44' W 118°17'2 3.8
2019-Feb-15 01:59N 33°43' W 118°16'2 4.9
2019-Feb-15 01:30N 33°45' W 118°16'0 0.6
2019-Feb-15 01:00N 33°45' W 118°16'  

Dump ship's entire track history